createdAt,value
2022-08-30T00:00:57.759Z,6.09
2022-08-30T00:02:00.736Z,6.04
2022-08-30T00:03:03.376Z,6.51
2022-08-30T00:04:06.688Z,6.31
2022-08-30T00:05:09.356Z,6.50
2022-08-30T00:06:12.643Z,6.47
2022-08-30T00:07:15.327Z,5.47
2022-08-30T00:08:18.079Z,6.49
2022-08-30T00:09:20.762Z,6.37
2022-08-30T00:10:25.161Z,5.71
2022-08-30T00:11:27.828Z,5.77
2022-08-30T00:12:30.396Z,6.62
2022-08-30T00:13:32.965Z,5.89
2022-08-30T00:14:35.841Z,6.11
2022-08-30T00:15:38.493Z,7.03
2022-08-30T00:16:42.815Z,5.94
2022-08-30T00:17:45.396Z,6.18
2022-08-30T00:18:48.051Z,6.53
2022-08-30T00:19:51.003Z,7.79
2022-08-30T00:20:53.701Z,6.13
2022-08-30T00:21:56.993Z,6.19
2022-08-30T00:22:59.956Z,6.64
2022-08-30T00:24:02.525Z,6.79
2022-08-30T00:25:05.137Z,6.39
2022-08-30T00:26:08.271Z,5.78
2022-08-30T00:27:10.939Z,7.07
2022-08-30T00:28:13.615Z,6.69
2022-08-30T00:29:16.242Z,6.18
2022-08-30T00:30:19.564Z,7.51
2022-08-30T00:31:22.358Z,6.15
2022-08-30T00:32:25.012Z,6.40
2022-08-30T00:33:27.600Z,6.59
2022-08-30T00:34:30.472Z,6.97
2022-08-30T00:35:32.991Z,6.83
2022-08-30T00:36:35.883Z,5.94
2022-08-30T00:37:38.411Z,6.59
2022-08-30T00:38:41.019Z,6.12
2022-08-30T00:39:43.894Z,6.30
2022-08-30T00:40:46.914Z,6.06
2022-08-30T00:41:49.852Z,5.69
2022-08-30T00:42:56.772Z,6.21
2022-08-30T00:43:56.925Z,6.24
2022-08-30T00:44:59.464Z,6.47
2022-08-30T00:46:02.305Z,6.14
2022-08-30T00:47:05.036Z,6.73
2022-08-30T00:48:07.603Z,6.34
2022-08-30T00:49:10.183Z,6.51
2022-08-30T00:50:13.660Z,6.38
2022-08-30T00:51:16.181Z,7.62
2022-08-30T00:52:18.747Z,6.21
2022-08-30T00:53:21.564Z,6.22
2022-08-30T00:54:24.240Z,6.04
2022-08-30T00:55:28.745Z,6.61
2022-08-30T00:56:31.833Z,6.04
2022-08-30T00:57:34.535Z,6.59
2022-08-30T00:58:37.173Z,6.29
2022-08-30T00:59:39.839Z,6.21
2022-08-30T01:00:42.808Z,6.22
2022-08-30T01:01:45.567Z,6.44
2022-08-30T01:02:48.516Z,6.60
2022-08-30T01:03:53.009Z,6.25
2022-08-30T01:04:55.636Z,6.27
2022-08-30T01:05:58.199Z,8.85
2022-08-30T01:07:01.279Z,6.34
2022-08-30T01:08:03.901Z,6.91
2022-08-30T01:09:06.519Z,6.13
2022-08-30T01:10:09.904Z,5.96
2022-08-30T01:11:12.468Z,5.88
2022-08-30T01:12:15.035Z,5.83
2022-08-30T01:13:19.506Z,6.04
2022-08-30T01:14:25.900Z,6.93
2022-08-30T01:15:26.996Z,6.19
2022-08-30T01:16:30.842Z,6.54
2022-08-30T01:17:33.816Z,7.07
2022-08-30T01:18:36.479Z,5.77
2022-08-30T01:19:39.064Z,6.08
2022-08-30T01:20:41.723Z,6.17
2022-08-30T01:21:44.484Z,6.13
2022-08-30T01:22:47.479Z,6.18
2022-08-30T01:23:50.290Z,6.39
2022-08-30T01:24:53.314Z,6.48
2022-08-30T01:25:55.837Z,6.47
2022-08-30T01:26:58.752Z,6.38
2022-08-30T01:28:01.324Z,6.19
2022-08-30T01:29:04.090Z,5.83
2022-08-30T01:30:07.066Z,6.62
2022-08-30T01:31:09.715Z,5.79
2022-08-30T01:32:12.713Z,7.98
2022-08-30T01:33:15.582Z,6.97
2022-08-30T01:34:18.670Z,6.95
2022-08-30T01:35:21.232Z,6.77
2022-08-30T01:36:24.004Z,7.39
2022-08-30T01:37:26.571Z,7.18
2022-08-30T01:38:29.143Z,7.08
2022-08-30T01:39:31.809Z,6.76
2022-08-30T01:40:34.735Z,5.74
2022-08-30T01:41:37.965Z,6.14
2022-08-30T01:42:40.943Z,6.36
2022-08-30T01:43:43.508Z,6.70
2022-08-30T01:44:46.076Z,6.87
2022-08-30T01:45:48.812Z,6.35
2022-08-30T01:46:51.631Z,6.91
2022-08-30T01:47:54.191Z,6.41
2022-08-30T01:48:56.821Z,6.29
2022-08-30T01:49:59.423Z,6.81
2022-08-30T01:51:02.297Z,7.22
2022-08-30T01:52:04.867Z,6.55
2022-08-30T01:53:07.533Z,6.54
2022-08-30T01:54:11.943Z,6.36
2022-08-30T01:55:14.510Z,6.69
2022-08-30T01:56:18.365Z,5.99
2022-08-30T01:57:20.980Z,7.42
2022-08-30T01:58:23.542Z,6.63
2022-08-30T01:59:26.209Z,6.66
2022-08-30T02:00:29.727Z,6.31
2022-08-30T02:01:32.390Z,7.45
2022-08-30T02:02:35.651Z,5.69
2022-08-30T02:03:38.269Z,6.85
2022-08-30T02:04:40.991Z,6.41
2022-08-30T02:05:43.967Z,6.46
2022-08-30T02:06:46.634Z,6.75
2022-08-30T02:07:49.211Z,6.87
2022-08-30T02:08:51.871Z,6.51
2022-08-30T02:09:54.396Z,6.08
2022-08-30T02:10:57.516Z,6.05
2022-08-30T02:12:00.090Z,6.29
2022-08-30T02:13:02.972Z,6.26
2022-08-30T02:14:05.524Z,6.10
2022-08-30T02:15:08.303Z,6.79
2022-08-30T02:16:11.873Z,6.78
2022-08-30T02:17:14.598Z,7.29
2022-08-30T02:18:17.123Z,6.78
2022-08-30T02:19:19.896Z,7.97
2022-08-30T02:20:23.180Z,6.60
2022-08-30T02:21:25.704Z,8.27
2022-08-30T02:22:28.312Z,7.43
2022-08-30T02:23:31.144Z,6.10
2022-08-30T02:24:33.789Z,6.59
2022-08-30T02:25:36.380Z,7.14
2022-08-30T02:26:39.195Z,6.45
2022-08-30T02:27:41.718Z,6.57
2022-08-30T02:28:49.822Z,6.79
2022-08-30T02:29:49.967Z,6.71
2022-08-30T02:30:53.004Z,6.66
2022-08-30T02:31:55.921Z,6.59
2022-08-30T02:32:58.588Z,7.35
2022-08-30T02:34:01.155Z,7.63
2022-08-30T02:35:03.727Z,6.75
2022-08-30T02:36:06.628Z,6.98
2022-08-30T02:37:09.165Z,6.23
2022-08-30T02:38:11.834Z,6.92
2022-08-30T02:39:14.709Z,5.91
2022-08-30T02:40:18.924Z,6.06
2022-08-30T02:41:21.786Z,5.90
2022-08-30T02:42:24.518Z,6.63
2022-08-30T02:43:27.124Z,6.63
2022-08-30T02:44:29.691Z,7.68
2022-08-30T02:45:32.285Z,5.96
2022-08-30T02:46:35.430Z,6.53
2022-08-30T02:47:38.118Z,6.97
2022-08-30T02:48:40.779Z,6.83
2022-08-30T02:49:43.214Z,7.01
2022-08-30T02:50:46.220Z,7.46
2022-08-30T02:51:48.787Z,7.54
2022-08-30T02:52:51.560Z,6.53
2022-08-30T02:53:56.029Z,6.86
2022-08-30T02:54:58.663Z,6.44
2022-08-30T02:56:01.217Z,6.21
2022-08-30T02:57:03.875Z,6.69
2022-08-30T02:58:06.443Z,6.95
2022-08-30T02:59:09.056Z,6.91
2022-08-30T03:00:12.155Z,6.65
2022-08-30T03:01:14.825Z,6.37
2022-08-30T03:02:17.938Z,6.51
2022-08-30T03:03:20.642Z,6.24
2022-08-30T03:04:26.785Z,6.93
2022-08-30T03:05:27.810Z,6.85
2022-08-30T03:06:31.280Z,6.09
2022-08-30T03:07:33.848Z,6.85
2022-08-30T03:08:36.521Z,7.35
2022-08-30T03:09:39.088Z,5.83
2022-08-30T03:10:42.065Z,6.36
2022-08-30T03:11:44.733Z,6.28
2022-08-30T03:12:47.416Z,6.33
2022-08-30T03:13:50.024Z,6.20
2022-08-30T03:14:52.638Z,6.95
2022-08-30T03:15:55.206Z,7.62
2022-08-30T03:16:58.214Z,6.62
2022-08-30T03:18:01.057Z,6.93
2022-08-30T03:19:03.619Z,7.12
2022-08-30T03:20:06.703Z,7.23
2022-08-30T03:21:09.360Z,6.95
2022-08-30T03:22:11.988Z,7.08
2022-08-30T03:23:21.524Z,6.65
2022-08-30T03:24:19.211Z,6.29
2022-08-30T03:25:21.779Z,6.19
2022-08-30T03:26:24.884Z,8.34
2022-08-30T03:27:27.427Z,7.43
2022-08-30T03:28:30.400Z,6.61
2022-08-30T03:29:32.924Z,6.60
2022-08-30T03:30:35.844Z,7.72
2022-08-30T03:31:40.724Z,7.23
2022-08-30T03:32:43.312Z,8.56
2022-08-30T03:33:46.012Z,9.67
2022-08-30T03:34:48.678Z,8.12
2022-08-30T03:35:51.340Z,8.47
2022-08-30T03:36:54.331Z,7.43
2022-08-30T03:37:57.353Z,7.29
2022-08-30T03:38:59.968Z,8.09
2022-08-30T03:40:02.936Z,6.86
2022-08-30T03:41:05.920Z,7.08
2022-08-30T03:42:10.529Z,7.54
2022-08-30T03:43:13.252Z,6.97
2022-08-30T03:44:16.071Z,6.62
2022-08-30T03:45:18.649Z,6.56
2022-08-30T03:46:28.058Z,7.08
2022-08-30T03:47:26.128Z,7.59
2022-08-30T03:48:28.701Z,6.89
2022-08-30T03:49:31.379Z,6.35
2022-08-30T03:50:34.550Z,7.23
2022-08-30T03:51:37.177Z,6.59
2022-08-30T03:52:39.741Z,6.30
2022-08-30T03:53:42.349Z,6.80
2022-08-30T03:54:44.873Z,7.11
2022-08-30T03:55:47.541Z,7.56
2022-08-30T03:56:52.099Z,6.52
2022-08-30T03:57:54.665Z,6.55
2022-08-30T03:58:57.233Z,7.19
2022-08-30T03:59:59.899Z,6.83
2022-08-30T04:01:02.503Z,7.30
2022-08-30T04:02:05.479Z,6.76
2022-08-30T04:03:08.425Z,6.53
2022-08-30T04:04:11.091Z,7.40
2022-08-30T04:05:14.117Z,6.65
2022-08-30T04:06:18.472Z,7.80
2022-08-30T04:07:21.040Z,6.65
2022-08-30T04:08:23.609Z,6.51
2022-08-30T04:09:26.187Z,6.98
2022-08-30T04:10:29.563Z,7.14
2022-08-30T04:11:32.145Z,7.24
2022-08-30T04:12:34.800Z,6.85
2022-08-30T04:13:37.363Z,6.43
2022-08-30T04:14:39.893Z,7.06
2022-08-30T04:15:44.410Z,7.67
2022-08-30T04:16:47.441Z,6.69
2022-08-30T04:17:50.335Z,6.94
2022-08-30T04:18:52.860Z,6.26
2022-08-30T04:19:55.428Z,6.64
2022-08-30T04:20:58.434Z,7.06
2022-08-30T04:22:01.281Z,6.30
2022-08-30T04:23:03.848Z,6.09
2022-08-30T04:24:06.416Z,6.61
2022-08-30T04:25:08.981Z,5.93
2022-08-30T04:26:13.964Z,6.89
2022-08-30T04:27:17.720Z,6.16
2022-08-30T04:28:20.327Z,5.78
2022-08-30T04:29:23.344Z,6.13
2022-08-30T04:30:26.429Z,6.24
2022-08-30T04:31:29.139Z,5.74
2022-08-30T04:32:32.074Z,5.54
2022-08-30T04:33:36.303Z,6.66
2022-08-30T04:34:40.688Z,6.41
2022-08-30T04:35:43.384Z,5.95
2022-08-30T04:36:48.133Z,6.48
2022-08-30T04:37:50.845Z,6.49
2022-08-30T04:38:54.048Z,7.55
2022-08-30T04:39:57.037Z,6.76
2022-08-30T04:40:59.912Z,7.12
2022-08-30T04:42:02.547Z,6.73
2022-08-30T04:43:05.219Z,6.66
2022-08-30T04:44:07.918Z,6.79
2022-08-30T04:45:12.397Z,7.40
2022-08-30T04:46:16.637Z,8.04
2022-08-30T04:47:19.277Z,8.02
2022-08-30T04:48:21.936Z,7.20
2022-08-30T04:49:24.613Z,7.07
2022-08-30T04:50:27.585Z,6.68
2022-08-30T04:51:30.175Z,6.30
2022-08-30T04:52:32.816Z,6.05
2022-08-30T04:53:35.384Z,6.34
2022-08-30T04:54:37.952Z,5.91
2022-08-30T04:55:40.520Z,6.33
2022-08-30T04:56:43.394Z,5.75
2022-08-30T04:57:46.064Z,5.93
2022-08-30T04:58:48.588Z,5.99
2022-08-30T04:59:51.153Z,5.45
2022-08-30T05:00:53.990Z,6.35
2022-08-30T05:01:56.653Z,5.73
2022-08-30T05:02:59.619Z,6.11
2022-08-30T05:04:02.279Z,6.15
2022-08-30T05:05:04.852Z,6.60
2022-08-30T05:06:07.928Z,5.33
2022-08-30T05:07:10.800Z,5.61
2022-08-30T05:08:13.372Z,5.62
2022-08-30T05:09:15.940Z,6.09
2022-08-30T05:10:19.803Z,5.71
2022-08-30T05:11:22.404Z,6.83
2022-08-30T05:12:24.928Z,6.27
2022-08-30T05:13:35.650Z,5.59
2022-08-30T05:14:32.048Z,6.65
2022-08-30T05:15:34.612Z,7.17
2022-08-30T05:16:38.371Z,5.25
2022-08-30T05:17:41.284Z,6.95
2022-08-30T05:18:43.851Z,6.05
2022-08-30T05:19:46.374Z,6.15
2022-08-30T05:20:49.208Z,5.82
2022-08-30T05:21:52.275Z,5.91
2022-08-30T05:22:54.935Z,6.02
2022-08-30T05:25:09.086Z,6.32
2022-08-30T05:26:12.469Z,5.46
2022-08-30T05:27:15.036Z,5.42
2022-08-30T05:28:17.663Z,5.59
2022-08-30T05:29:20.372Z,6.23
2022-08-30T05:30:24.385Z,7.15
2022-08-30T05:31:27.105Z,6.12
2022-08-30T05:32:29.813Z,5.35
2022-08-30T05:33:32.484Z,5.26
2022-08-30T05:34:36.892Z,5.37
2022-08-30T05:35:39.459Z,6.25
2022-08-30T05:36:42.232Z,5.49
2022-08-30T05:37:44.799Z,5.52
2022-08-30T05:38:47.446Z,5.13
2022-08-30T05:39:51.988Z,5.34
2022-08-30T05:40:54.857Z,6.14
2022-08-30T05:41:57.728Z,5.79
2022-08-30T05:43:00.705Z,5.49
2022-08-30T05:44:03.228Z,5.87
2022-08-30T05:45:05.777Z,5.86
2022-08-30T05:46:09.163Z,5.94
2022-08-30T05:47:11.961Z,5.37
2022-08-30T05:48:14.608Z,6.75
2022-08-30T05:49:17.335Z,5.12
2022-08-30T05:50:20.620Z,5.54
2022-08-30T05:51:23.337Z,7.23
2022-08-30T05:52:25.962Z,5.66
2022-08-30T05:53:28.583Z,5.95
2022-08-30T05:54:31.191Z,5.93
2022-08-30T05:55:33.760Z,5.49
2022-08-30T05:56:36.641Z,5.66
2022-08-30T05:57:39.928Z,5.17
2022-08-30T05:58:42.895Z,4.94
2022-08-30T05:59:45.524Z,5.53
2022-08-30T06:00:48.541Z,6.27
2022-08-30T06:01:51.121Z,4.94
2022-08-30T06:02:53.932Z,5.41
2022-08-30T06:04:00.334Z,5.49
2022-08-30T06:05:01.066Z,5.15
2022-08-30T06:06:03.749Z,5.47
2022-08-30T06:07:06.306Z,5.13
2022-08-30T06:08:10.043Z,5.20
2022-08-30T06:09:12.659Z,4.99
2022-08-30T06:10:15.752Z,5.22
2022-08-30T06:11:20.149Z,5.41
2022-08-30T06:12:22.729Z,5.19
2022-08-30T06:13:25.285Z,5.83
2022-08-30T06:14:27.855Z,4.99
2022-08-30T06:15:30.415Z,5.53
2022-08-30T06:16:33.857Z,5.00
2022-08-30T06:17:36.782Z,6.34
2022-08-30T06:18:39.551Z,5.45
2022-08-30T06:19:42.120Z,5.08
2022-08-30T06:20:45.100Z,5.81
2022-08-30T06:21:50.119Z,5.29
2022-08-30T06:22:52.643Z,5.76
2022-08-30T06:23:55.460Z,5.28
2022-08-30T06:24:58.405Z,6.18
2022-08-30T06:26:01.210Z,5.35
2022-08-30T06:27:03.768Z,6.23
2022-08-30T06:28:06.273Z,7.30
2022-08-30T06:29:08.904Z,4.87
2022-08-30T06:30:12.808Z,5.08
2022-08-30T06:31:15.384Z,5.21
2022-08-30T06:32:18.159Z,6.32
2022-08-30T06:33:20.809Z,5.57
2022-08-30T06:34:23.499Z,5.28
2022-08-30T06:35:26.052Z,5.83
2022-08-30T06:36:28.815Z,5.55
2022-08-30T06:37:31.384Z,5.58
2022-08-30T06:38:33.904Z,4.53
2022-08-30T06:39:36.525Z,4.71
2022-08-30T06:40:40.157Z,5.04
2022-08-30T06:41:42.795Z,4.95
2022-08-30T06:42:45.755Z,4.58
2022-08-30T06:43:49.291Z,6.69
2022-08-30T06:44:52.319Z,4.74
2022-08-30T06:45:54.888Z,4.66
2022-08-30T06:46:57.786Z,4.70
2022-08-30T06:48:00.744Z,4.99
2022-08-30T06:49:03.408Z,5.63
2022-08-30T06:50:06.279Z,6.16
2022-08-30T06:51:09.222Z,5.59
2022-08-30T06:52:11.826Z,6.11
2022-08-30T06:53:14.832Z,5.22
2022-08-30T06:54:17.467Z,5.71
2022-08-30T06:55:20.037Z,5.34
2022-08-30T06:56:25.203Z,6.49
2022-08-30T06:57:28.047Z,5.56
2022-08-30T06:58:30.708Z,5.89
2022-08-30T06:59:33.275Z,5.36
2022-08-30T07:00:36.005Z,6.83
2022-08-30T07:01:39.469Z,6.12
2022-08-30T07:02:42.373Z,6.00
2022-08-30T07:03:45.288Z,6.51
2022-08-30T07:04:47.952Z,6.32
2022-08-30T07:05:50.622Z,7.43
2022-08-30T07:06:53.605Z,6.61
2022-08-30T07:07:56.578Z,6.09
2022-08-30T07:08:59.244Z,6.43
2022-08-30T07:10:01.914Z,6.02
2022-08-30T07:11:04.684Z,6.25
2022-08-30T07:12:07.355Z,5.80
2022-08-30T07:13:10.153Z,6.09
2022-08-30T07:14:12.895Z,5.60
2022-08-30T07:15:15.463Z,6.12
2022-08-30T07:16:19.794Z,6.38
2022-08-30T07:17:22.748Z,5.80
2022-08-30T07:18:25.315Z,6.15
2022-08-30T07:19:27.881Z,5.69
2022-08-30T07:20:39.870Z,6.24
2022-08-30T07:21:35.780Z,5.99
2022-08-30T07:22:38.961Z,5.90
2022-08-30T07:23:41.835Z,6.08
2022-08-30T07:24:44.403Z,6.64
2022-08-30T07:25:47.479Z,6.13
2022-08-30T07:26:50.461Z,6.16
2022-08-30T07:27:53.127Z,7.27
2022-08-30T07:28:56.342Z,6.33
2022-08-30T07:29:59.399Z,5.81
2022-08-30T07:31:02.735Z,6.42
2022-08-30T07:32:05.340Z,5.88
2022-08-30T07:33:07.906Z,6.21
2022-08-30T07:34:10.472Z,6.24
2022-08-30T07:35:13.047Z,5.93
2022-08-30T07:36:16.940Z,5.63
2022-08-30T07:37:19.608Z,4.68
2022-08-30T07:38:22.170Z,4.77
2022-08-30T07:39:24.944Z,3.83
2022-08-30T07:40:28.185Z,5.84
2022-08-30T07:41:31.160Z,5.19
2022-08-30T07:42:34.138Z,5.07
2022-08-30T07:43:36.748Z,4.95
2022-08-30T07:44:39.314Z,5.55
2022-08-30T07:45:41.880Z,4.89
2022-08-30T07:46:44.924Z,5.29
2022-08-30T07:47:47.835Z,4.99
2022-08-30T07:48:50.402Z,4.40
2022-08-30T07:49:52.974Z,4.35
2022-08-30T07:50:59.024Z,5.59
2022-08-30T07:52:00.359Z,5.29
2022-08-30T07:53:03.995Z,5.06
2022-08-30T07:54:07.292Z,5.08
2022-08-30T07:55:09.904Z,4.75
2022-08-30T07:56:13.215Z,4.15
2022-08-30T07:57:16.020Z,5.84
2022-08-30T07:58:19.428Z,5.08
2022-08-30T07:59:22.383Z,4.76
2022-08-30T08:00:25.700Z,4.27
2022-08-30T08:01:28.350Z,4.53
2022-08-30T08:02:31.077Z,4.97
2022-08-30T08:03:34.023Z,4.53
2022-08-30T08:04:36.690Z,4.55
2022-08-30T08:05:39.209Z,4.44
2022-08-30T08:06:42.023Z,4.45
2022-08-30T08:07:44.999Z,4.46
2022-08-30T08:08:47.581Z,4.69
2022-08-30T08:09:50.135Z,4.51
2022-08-30T08:10:53.025Z,4.88
2022-08-30T08:11:55.672Z,5.22
2022-08-30T08:12:58.305Z,6.59
2022-08-30T08:14:01.713Z,5.42
2022-08-30T08:15:06.769Z,5.29
2022-08-30T08:16:10.375Z,5.57
2022-08-30T08:17:13.224Z,5.60
2022-08-30T08:18:15.985Z,5.19
2022-08-30T08:19:18.663Z,5.06
2022-08-30T08:20:22.964Z,4.80
2022-08-30T08:21:25.698Z,5.80
2022-08-30T08:22:28.350Z,6.24
2022-08-30T08:23:30.979Z,4.88
2022-08-30T08:24:33.671Z,5.28
2022-08-30T08:25:36.215Z,6.40
2022-08-30T08:26:38.886Z,5.69
2022-08-30T08:27:43.296Z,5.31
2022-08-30T08:28:46.067Z,5.47
2022-08-30T08:29:48.592Z,5.85
2022-08-30T08:30:51.441Z,5.44
2022-08-30T08:31:54.646Z,5.87
2022-08-30T08:32:57.213Z,6.82
2022-08-30T08:35:02.380Z,5.17
2022-08-30T08:36:08.825Z,4.97
2022-08-30T08:37:09.672Z,5.19
2022-08-30T08:38:12.250Z,5.79
2022-08-30T08:39:15.010Z,4.89
2022-08-30T08:40:18.594Z,5.55
2022-08-30T08:41:21.585Z,5.68
2022-08-30T08:42:24.456Z,6.00
2022-08-30T08:43:27.080Z,5.81
2022-08-30T08:44:34.312Z,5.23
2022-08-30T08:45:34.099Z,5.32
2022-08-30T08:46:38.949Z,5.28
2022-08-30T08:47:43.332Z,4.84
2022-08-30T08:48:59.500Z,6.56
2022-08-30T08:49:51.435Z,5.36
2022-08-30T08:50:54.408Z,5.31
2022-08-30T08:51:56.932Z,4.76
2022-08-30T08:52:59.608Z,5.13
2022-08-30T08:54:02.414Z,4.78
2022-08-30T08:55:04.981Z,5.05
2022-08-30T08:56:08.061Z,5.33
2022-08-30T08:57:13.917Z,5.98
2022-08-30T08:58:16.978Z,4.67
2022-08-30T08:59:19.757Z,4.85
2022-08-30T09:00:22.735Z,5.09
2022-08-30T09:01:25.386Z,5.71
2022-08-30T09:02:28.028Z,5.85
2022-08-30T09:03:30.641Z,6.25
2022-08-30T09:04:33.328Z,6.00
2022-08-30T09:05:35.974Z,4.90
2022-08-30T09:06:38.751Z,6.34
2022-08-30T09:07:43.216Z,5.95
2022-08-30T09:08:45.826Z,6.24
2022-08-30T09:09:48.350Z,6.19
2022-08-30T09:10:52.802Z,5.79
2022-08-30T09:11:55.370Z,4.61
2022-08-30T09:13:00.001Z,5.35
2022-08-30T09:14:02.413Z,5.86
2022-08-30T09:15:05.039Z,4.81
2022-08-30T09:16:08.511Z,4.89
2022-08-30T09:17:12.920Z,5.30
2022-08-30T09:18:19.675Z,5.31
2022-08-30T09:19:20.098Z,6.05
2022-08-30T09:20:24.749Z,5.82
2022-08-30T09:21:27.444Z,5.72
2022-08-30T09:22:30.112Z,6.03
2022-08-30T09:23:32.822Z,6.73
2022-08-30T09:24:35.353Z,6.04
2022-08-30T09:25:41.718Z,6.41
2022-08-30T09:26:42.981Z,5.61
2022-08-30T09:27:47.353Z,6.22
2022-08-30T09:28:50.271Z,4.80
2022-08-30T09:29:52.934Z,5.05
2022-08-30T09:30:56.035Z,5.59
2022-08-30T09:32:22.618Z,5.05
2022-08-30T09:33:03.097Z,5.11
2022-08-30T09:34:06.579Z,4.51
2022-08-30T09:35:09.585Z,5.40
2022-08-30T09:36:12.534Z,4.62
2022-08-30T09:37:15.100Z,5.03
2022-08-30T09:38:18.035Z,5.17
2022-08-30T09:39:21.219Z,5.78
2022-08-30T09:40:27.170Z,5.61
2022-08-30T09:41:29.886Z,4.96
2022-08-30T09:42:33.319Z,5.52
2022-08-30T09:43:35.839Z,5.16
2022-08-30T09:44:38.807Z,4.81
2022-08-30T09:45:41.327Z,5.05
2022-08-30T09:46:45.891Z,5.66
2022-08-30T09:47:49.584Z,5.79
2022-08-30T09:48:52.560Z,5.16
2022-08-30T09:49:56.660Z,5.26
2022-08-30T09:50:59.695Z,4.47
2022-08-30T09:52:02.367Z,5.25
2022-08-30T09:53:06.880Z,5.47
2022-08-30T09:54:18.386Z,4.63
2022-08-30T09:55:14.003Z,5.38
2022-08-30T09:56:17.347Z,5.61
2022-08-30T09:57:20.161Z,5.31
2022-08-30T09:58:29.359Z,5.44
2022-08-30T09:59:29.284Z,5.05
2022-08-30T10:00:32.362Z,4.49
2022-08-30T10:01:36.078Z,5.36
2022-08-30T10:02:38.930Z,4.51
2022-08-30T10:03:41.495Z,4.83
2022-08-30T10:04:45.197Z,5.43
2022-08-30T10:05:47.862Z,4.85
2022-08-30T10:06:50.829Z,5.09
2022-08-30T10:07:55.041Z,5.16
2022-08-30T10:08:57.607Z,4.45
2022-08-30T10:10:00.276Z,5.15
2022-08-30T10:11:03.357Z,5.37
2022-08-30T10:12:06.030Z,6.08
2022-08-30T10:13:08.594Z,5.65
2022-08-30T10:14:11.678Z,5.50
2022-08-30T10:15:14.333Z,5.20
2022-08-30T10:16:18.036Z,5.01
2022-08-30T10:17:25.914Z,5.23
2022-08-30T10:18:26.843Z,5.38
2022-08-30T10:19:29.514Z,5.26
2022-08-30T10:20:32.802Z,5.41
2022-08-30T10:21:36.184Z,4.91
2022-08-30T10:22:41.864Z,5.93
2022-08-30T10:23:44.594Z,4.97
2022-08-30T10:24:47.162Z,5.15
2022-08-30T10:25:49.832Z,4.70
2022-08-30T10:26:53.053Z,4.83
2022-08-30T10:27:55.888Z,4.59
2022-08-30T10:28:58.661Z,5.07
2022-08-30T10:30:01.331Z,4.84
2022-08-30T10:31:03.999Z,4.68
2022-08-30T10:32:07.179Z,5.34
2022-08-30T10:33:10.056Z,4.37
2022-08-30T10:34:13.089Z,5.30
2022-08-30T10:35:19.297Z,5.36
2022-08-30T10:36:20.929Z,4.83
2022-08-30T10:37:23.491Z,4.71
2022-08-30T10:38:26.033Z,5.65
2022-08-30T10:39:30.943Z,5.15
2022-08-30T10:40:33.495Z,4.98
2022-08-30T10:41:36.689Z,5.17
2022-08-30T10:42:40.317Z,5.31
2022-08-30T10:43:42.990Z,5.31
2022-08-30T10:44:45.923Z,5.12
2022-08-30T10:45:49.148Z,4.46
2022-08-30T10:46:52.027Z,4.55
2022-08-30T10:47:54.590Z,4.89
2022-08-30T10:48:57.168Z,4.31
2022-08-30T10:49:59.929Z,6.21
2022-08-30T10:51:04.357Z,4.74
2022-08-30T10:52:06.830Z,4.69
2022-08-30T10:53:09.388Z,4.27
2022-08-30T10:54:11.859Z,4.87
2022-08-30T10:55:16.292Z,4.33
2022-08-30T10:56:19.630Z,4.24
2022-08-30T10:57:22.146Z,4.71
2022-08-30T10:58:24.619Z,4.73
2022-08-30T10:59:27.230Z,4.69
2022-08-30T11:00:30.717Z,4.84
2022-08-30T11:01:33.341Z,4.25
2022-08-30T11:02:36.262Z,4.29
2022-08-30T11:03:38.931Z,4.68
2022-08-30T11:04:45.487Z,5.61
2022-08-30T11:05:46.541Z,4.39
2022-08-30T11:06:50.139Z,4.91
2022-08-30T11:07:53.804Z,4.68
2022-08-30T11:08:56.370Z,3.49
2022-08-30T11:09:58.938Z,4.25
2022-08-30T11:11:01.811Z,4.71
2022-08-30T11:12:04.359Z,3.97
2022-08-30T11:13:07.047Z,4.76
2022-08-30T11:14:09.927Z,5.08
2022-08-30T11:15:13.845Z,4.79
2022-08-30T11:16:18.189Z,4.26
2022-08-30T11:17:22.742Z,4.46
2022-08-30T11:18:26.747Z,4.45
2022-08-30T11:19:32.102Z,4.68
2022-08-30T11:20:35.621Z,4.33
2022-08-30T11:21:38.447Z,4.72
2022-08-30T11:22:41.414Z,4.14
2022-08-30T11:23:45.006Z,4.28
2022-08-30T11:24:47.706Z,4.63
2022-08-30T11:25:57.423Z,5.60
2022-08-30T11:26:55.471Z,4.57
2022-08-30T11:27:58.035Z,4.33
2022-08-30T11:29:00.808Z,4.73
2022-08-30T11:30:03.788Z,4.76
2022-08-30T11:31:06.353Z,4.17
2022-08-30T11:32:08.915Z,4.16
2022-08-30T11:33:11.569Z,4.97
2022-08-30T11:34:14.166Z,4.42
2022-08-30T11:35:16.857Z,4.37
2022-08-30T11:36:21.082Z,4.98
2022-08-30T11:37:23.801Z,4.77
2022-08-30T11:38:27.392Z,5.19
2022-08-30T11:39:29.989Z,6.59
2022-08-30T11:40:33.252Z,4.55
2022-08-30T11:41:40.834Z,4.11
2022-08-30T11:43:44.324Z,5.08
2022-08-30T11:44:47.093Z,4.45
2022-08-30T11:45:49.790Z,4.09
2022-08-30T11:46:53.558Z,4.32
2022-08-30T11:47:56.124Z,4.04
2022-08-30T11:49:00.670Z,4.05
2022-08-30T11:50:03.366Z,4.97
2022-08-30T11:51:07.837Z,4.38
2022-08-30T11:52:28.061Z,4.85
2022-08-30T11:53:15.164Z,4.18
2022-08-30T11:54:18.395Z,4.36
2022-08-30T11:55:21.014Z,4.79
2022-08-30T11:56:24.338Z,4.38
2022-08-30T11:57:27.007Z,4.34
2022-08-30T11:58:29.536Z,4.67
2022-08-30T11:59:32.109Z,3.96
2022-08-30T12:00:35.484Z,5.24
2022-08-30T12:01:49.916Z,4.69
2022-08-30T12:02:42.934Z,5.29
2022-08-30T12:03:45.896Z,5.10
2022-08-30T12:04:48.767Z,4.42
2022-08-30T12:05:52.367Z,4.47
2022-08-30T12:06:55.335Z,4.29
2022-08-30T12:07:57.959Z,4.42
2022-08-30T12:09:02.928Z,4.31
2022-08-30T12:10:06.294Z,5.07
2022-08-30T12:11:09.220Z,4.64
2022-08-30T12:12:12.882Z,4.11
2022-08-30T12:13:15.351Z,4.10
2022-08-30T12:14:17.908Z,5.03
2022-08-30T12:15:20.373Z,4.39
2022-08-30T12:16:23.310Z,4.95
2022-08-30T12:17:25.978Z,4.83
2022-08-30T12:18:28.914Z,4.58
2022-08-30T12:19:31.560Z,4.96
2022-08-30T12:20:34.637Z,4.96
2022-08-30T12:21:44.715Z,5.01
2022-08-30T12:22:42.234Z,4.87
2022-08-30T12:23:44.957Z,4.91
2022-08-30T12:24:47.774Z,5.02
2022-08-30T12:25:50.345Z,4.95
2022-08-30T12:26:53.117Z,4.79
2022-08-30T12:27:57.955Z,4.99
2022-08-30T12:29:00.160Z,5.05
2022-08-30T12:30:02.867Z,4.63
2022-08-30T12:31:06.864Z,4.57
2022-08-30T12:32:09.563Z,4.61
2022-08-30T12:33:12.512Z,4.95
2022-08-30T12:34:16.420Z,5.19
2022-08-30T12:35:20.816Z,4.91
2022-08-30T12:36:24.613Z,4.69
2022-08-30T12:37:27.385Z,4.45
2022-08-30T12:38:29.845Z,5.65
2022-08-30T12:39:32.470Z,4.92
2022-08-30T12:40:35.494Z,5.33
2022-08-30T12:41:43.342Z,4.83
2022-08-30T12:42:43.187Z,5.61
2022-08-30T12:43:46.488Z,5.39
2022-08-30T12:44:50.878Z,6.28
2022-08-30T12:45:53.525Z,5.03
2022-08-30T12:46:59.723Z,5.29
2022-08-30T12:48:01.812Z,4.93
2022-08-30T12:49:04.378Z,5.56
2022-08-30T12:50:12.024Z,5.08
2022-08-30T12:51:13.145Z,4.73
2022-08-30T12:52:16.420Z,5.97
2022-08-30T12:53:18.897Z,5.16
2022-08-30T12:54:21.454Z,4.71
2022-08-30T12:55:24.392Z,5.09
2022-08-30T12:56:49.206Z,4.69
2022-08-30T12:57:35.164Z,4.66
2022-08-30T12:58:36.736Z,4.30
2022-08-30T12:59:39.821Z,4.56
2022-08-30T13:00:42.918Z,4.72
2022-08-30T13:01:45.923Z,4.36
2022-08-30T13:02:50.280Z,4.19
2022-08-30T13:03:53.263Z,4.79
2022-08-30T13:04:55.841Z,4.91
2022-08-30T13:05:58.453Z,5.59
2022-08-30T13:07:01.635Z,4.85
2022-08-30T13:08:04.248Z,5.45
2022-08-30T13:09:06.769Z,5.05
2022-08-30T13:10:11.913Z,4.69
2022-08-30T13:11:14.569Z,4.25
2022-08-30T13:12:17.377Z,4.63
2022-08-30T13:13:21.279Z,4.89
2022-08-30T13:14:25.693Z,4.92
2022-08-30T13:15:28.252Z,4.43
2022-08-30T13:16:31.105Z,4.45
2022-08-30T13:17:33.755Z,4.83
2022-08-30T13:18:36.366Z,4.03
2022-08-30T13:19:39.753Z,4.56
2022-08-30T13:20:43.545Z,4.59
2022-08-30T13:21:46.725Z,4.51
2022-08-30T13:22:49.601Z,4.00
2022-08-30T13:23:54.074Z,4.55
2022-08-30T13:24:56.696Z,4.76
2022-08-30T13:26:00.373Z,4.30
2022-08-30T13:27:02.875Z,4.87
2022-08-30T13:28:05.413Z,4.99
2022-08-30T13:29:10.425Z,4.90
2022-08-30T13:30:14.582Z,4.64
2022-08-30T13:31:17.453Z,4.93
2022-08-30T13:32:20.038Z,4.81
2022-08-30T13:33:22.646Z,5.13
2022-08-30T13:34:25.171Z,5.07
2022-08-30T13:35:27.779Z,4.73
2022-08-30T13:36:31.701Z,5.36
2022-08-30T13:37:51.358Z,5.24
2022-08-30T13:38:38.754Z,4.88
2022-08-30T13:39:41.323Z,4.57
2022-08-30T13:40:44.215Z,5.17
2022-08-30T13:41:46.866Z,5.07
2022-08-30T13:42:49.736Z,4.81
2022-08-30T13:44:56.823Z,5.14
2022-08-30T13:45:59.612Z,4.95
2022-08-30T13:48:06.781Z,5.58
2022-08-30T13:49:42.979Z,4.79
2022-08-30T13:50:19.168Z,4.93
2022-08-30T13:51:18.872Z,5.51
2022-08-30T13:52:22.568Z,6.23
2022-08-30T13:54:30.474Z,5.34
2022-08-30T13:55:33.274Z,5.21
2022-08-30T13:56:36.114Z,5.41
2022-08-30T13:57:55.989Z,6.47
2022-08-30T13:58:44.014Z,6.20
2022-08-30T13:59:49.787Z,6.19
2022-08-30T14:00:53.870Z,5.26
2022-08-30T14:02:12.076Z,5.56
2022-08-30T14:03:01.650Z,5.19
2022-08-30T14:04:13.567Z,5.25
2022-08-30T14:05:20.518Z,5.54
2022-08-30T14:06:32.672Z,5.39